createdAt,value
2023-04-13T00:00:46.763Z,54.10
2023-04-13T00:03:19.848Z,51.00
2023-04-13T00:05:52.114Z,51.30
2023-04-13T00:08:22.878Z,55.00
2023-04-13T00:10:51.185Z,55.30
2023-04-13T00:13:19.154Z,49.80
2023-04-13T00:15:47.079Z,51.20
2023-04-13T00:18:14.892Z,51.90
2023-04-13T00:20:43.645Z,58.60
2023-04-13T00:23:12.428Z,58.10
2023-04-13T00:25:40.312Z,55.30
2023-04-13T00:28:09.145Z,55.70
2023-04-13T00:30:37.061Z,54.40
2023-04-13T00:33:06.881Z,52.60
2023-04-13T00:35:34.981Z,55.50
2023-04-13T00:38:03.241Z,54.00
2023-04-13T00:40:32.097Z,53.60
2023-04-13T00:43:02.115Z,51.60
2023-04-13T00:45:39.000Z,52.40
2023-04-13T00:48:10.993Z,40.40
2023-04-13T00:53:10.925Z,51.00
2023-04-13T00:55:42.127Z,47.80
2023-04-13T00:58:10.716Z,48.90
2023-04-13T01:00:39.555Z,46.60
2023-04-13T01:03:08.124Z,44.50
2023-04-13T01:06:21.271Z,49.20
2023-04-13T01:11:33.000Z,98.30
2023-04-13T01:14:12.326Z,95.20
2023-04-13T01:16:56.908Z,89.90
2023-04-13T01:20:12.146Z,70.80
2023-04-13T01:22:45.638Z,70.00
2023-04-13T01:25:50.797Z,56.80
2023-04-13T01:28:21.642Z,56.90
2023-04-13T01:30:51.708Z,46.30
2023-04-13T01:36:14.605Z,46.20
2023-04-13T01:38:42.523Z,46.00
2023-04-13T01:41:14.085Z,43.80
2023-04-13T01:43:46.213Z,36.90
2023-04-13T01:46:15.831Z,38.00
2023-04-13T01:48:55.721Z,33.90
2023-04-13T01:51:52.164Z,33.50
2023-04-13T01:54:27.671Z,32.50
2023-04-13T01:56:57.280Z,38.90
2023-04-13T01:59:25.363Z,39.30
2023-04-13T02:01:54.659Z,39.30
2023-04-13T02:04:23.362Z,47.70
2023-04-13T02:06:52.227Z,51.80
2023-04-13T02:09:28.364Z,42.50
2023-04-13T02:11:56.298Z,46.70
2023-04-13T02:14:25.197Z,54.60
2023-04-13T02:16:54.786Z,47.80
2023-04-13T02:19:22.926Z,41.40
2023-04-13T02:21:50.903Z,42.80
2023-04-13T02:24:19.325Z,42.30
2023-04-13T02:26:47.318Z,45.90
2023-04-13T02:29:15.223Z,42.40
2023-04-13T02:31:46.290Z,39.80
2023-04-13T02:34:14.396Z,41.40
2023-04-13T02:36:43.084Z,44.50
2023-04-13T02:39:12.294Z,48.90
2023-04-13T02:41:43.213Z,43.20
2023-04-13T02:44:14.677Z,42.40
2023-04-13T02:47:02.942Z,38.60
2023-04-13T02:49:32.023Z,37.60
2023-04-13T02:52:17.628Z,33.70
2023-04-13T02:54:57.125Z,37.00
2023-04-13T02:57:27.864Z,37.60
2023-04-13T02:59:56.766Z,41.70
2023-04-13T03:02:28.002Z,42.80
2023-04-13T03:04:56.549Z,38.70
2023-04-13T03:07:25.871Z,37.00
2023-04-13T03:09:55.386Z,48.20
2023-04-13T03:12:26.430Z,44.50
2023-04-13T03:14:54.765Z,40.80
2023-04-13T03:17:23.353Z,52.50
2023-04-13T03:19:52.216Z,55.80
2023-04-13T03:22:21.368Z,46.90
2023-04-13T03:24:50.845Z,38.40
2023-04-13T03:27:26.220Z,38.70
2023-04-13T03:29:55.010Z,40.60
2023-04-13T03:32:23.769Z,42.10
2023-04-13T03:34:58.569Z,35.30
2023-04-13T03:37:32.444Z,36.60
2023-04-13T03:40:10.338Z,37.20
2023-04-13T03:42:44.251Z,36.40
2023-04-13T03:45:14.216Z,37.90
2023-04-13T03:47:42.807Z,37.00
2023-04-13T03:50:11.140Z,39.60
2023-04-13T03:52:40.732Z,40.70
2023-04-13T03:55:09.673Z,39.30
2023-04-13T03:57:40.961Z,38.10
2023-04-13T04:04:59.922Z,38.30
2023-04-13T04:07:29.120Z,34.90
2023-04-13T04:09:58.271Z,36.50
2023-04-13T04:12:26.221Z,43.40
2023-04-13T04:14:54.236Z,48.60
2023-04-13T04:17:25.376Z,52.60
2023-04-13T04:19:53.371Z,41.90
2023-04-13T04:22:30.380Z,41.10
2023-04-13T04:25:01.943Z,45.80
2023-04-13T04:27:37.993Z,44.50
2023-04-13T04:34:40.922Z,46.50
2023-04-13T04:37:20.298Z,47.40
2023-04-13T04:39:56.016Z,50.50
2023-04-13T04:42:24.065Z,51.00
2023-04-13T04:44:53.013Z,39.60
2023-04-13T04:47:24.453Z,44.60
2023-04-13T04:50:12.545Z,40.70
2023-04-13T04:52:41.887Z,41.60
2023-04-13T04:55:10.532Z,43.80
2023-04-13T04:57:40.386Z,38.40
2023-04-13T05:00:18.449Z,38.00
2023-04-13T05:03:01.796Z,36.90
2023-04-13T05:05:30.785Z,37.60
2023-04-13T05:08:01.451Z,31.60
2023-04-13T05:10:30.131Z,35.30
2023-04-13T05:12:59.015Z,32.50
2023-04-13T05:15:28.444Z,32.40
2023-04-13T05:17:56.960Z,34.00
2023-04-13T05:20:28.010Z,29.90
2023-04-13T05:23:01.611Z,29.80
2023-04-13T05:25:47.890Z,32.20
2023-04-13T05:28:19.000Z,31.50
2023-04-13T05:30:47.549Z,26.70
2023-04-13T05:33:17.135Z,35.30
2023-04-13T05:35:45.218Z,32.60
2023-04-13T05:38:13.468Z,33.50
2023-04-13T05:40:41.591Z,29.30
2023-04-13T05:43:10.076Z,32.60
2023-04-13T05:45:41.632Z,24.50
2023-04-13T05:48:13.806Z,30.50
2023-04-13T05:50:43.736Z,25.80
2023-04-13T05:53:11.845Z,27.10
2023-04-13T05:55:48.322Z,24.50
2023-04-13T05:58:19.288Z,24.30
2023-04-13T06:03:20.856Z,25.20
2023-04-13T06:05:49.647Z,29.90
2023-04-13T06:08:17.688Z,28.50
2023-04-13T06:10:45.647Z,23.10
2023-04-13T06:13:14.453Z,20.20
2023-04-13T06:15:42.673Z,23.00
2023-04-13T09:55:17.935Z,5.50
2023-04-13T10:00:20.769Z,6.70
2023-04-13T10:02:53.922Z,6.80
2023-04-13T10:05:22.924Z,7.10
2023-04-13T10:07:51.755Z,6.70
2023-04-13T10:10:19.830Z,7.40
2023-04-13T10:12:52.513Z,6.20
2023-04-13T10:15:32.425Z,7.90
2023-04-13T10:18:32.504Z,7.30
2023-04-13T10:21:01.768Z,7.50
2023-04-13T10:23:32.138Z,7.10
2023-04-13T11:04:42.166Z,7.00
2023-04-13T11:22:28.708Z,8.80
2023-04-13T11:25:09.960Z,5.50
2023-04-13T11:27:38.263Z,6.50
2023-04-13T11:30:14.152Z,8.40
2023-04-13T11:32:44.882Z,9.00
2023-04-13T11:35:15.339Z,6.60
2023-04-13T11:37:55.222Z,5.80
2023-04-13T11:40:27.662Z,7.50
2023-04-13T11:42:58.309Z,5.70
2023-04-13T11:45:28.785Z,6.60
2023-04-13T11:47:57.893Z,6.10
2023-04-13T11:50:26.212Z,6.50
2023-04-13T11:52:56.604Z,15.90
2023-04-13T11:55:26.017Z,8.20
2023-04-13T12:08:03.449Z,8.10
2023-04-13T12:10:43.505Z,5.00
2023-04-13T12:13:35.719Z,3.90
2023-04-13T12:16:11.237Z,5.30
2023-04-13T12:18:46.897Z,4.30
2023-04-13T12:21:17.413Z,5.00
2023-04-13T12:23:54.146Z,4.90
2023-04-13T12:27:09.897Z,5.50
2023-04-13T12:29:13.972Z,6.50
2023-04-13T12:31:44.473Z,3.80
2023-04-13T12:34:12.493Z,4.20
2023-04-13T12:36:40.479Z,3.20
2023-04-13T12:39:09.045Z,5.40
2023-04-13T12:41:38.077Z,3.70
2023-04-13T12:44:06.036Z,6.40
2023-04-13T12:46:34.296Z,2.80
2023-04-13T12:49:02.547Z,2.50
2023-04-13T12:51:31.682Z,4.80
2023-04-13T12:53:59.629Z,6.40
2023-04-13T12:56:27.487Z,4.60
2023-04-13T12:58:56.267Z,4.50
2023-04-13T13:01:24.152Z,5.00
2023-04-13T13:03:52.219Z,3.50
2023-04-13T13:06:20.566Z,4.20
2023-04-13T13:08:48.678Z,10.50
2023-04-13T13:11:16.936Z,6.80
2023-04-13T13:13:46.175Z,6.60
2023-04-13T13:16:14.381Z,6.60
2023-04-13T13:18:50.398Z,8.80
2023-04-13T13:21:29.098Z,5.80
2023-04-13T13:23:56.959Z,4.30
2023-04-13T13:26:27.364Z,13.10
2023-04-13T13:29:01.070Z,9.10
2023-04-13T13:31:29.255Z,4.00
2023-04-13T13:34:06.280Z,8.10
2023-04-13T13:36:34.375Z,2.90
2023-04-13T13:39:02.157Z,2.50
2023-04-13T13:41:29.981Z,3.00
2023-04-13T13:43:57.788Z,5.40
2023-04-13T13:46:26.129Z,2.70
2023-04-13T13:48:54.528Z,3.50
2023-04-13T13:51:34.610Z,3.60
2023-04-13T13:54:03.384Z,3.30
2023-04-13T13:56:31.265Z,2.60
2023-04-13T13:59:00.102Z,3.90
2023-04-13T14:01:28.268Z,3.60
2023-04-13T14:03:56.557Z,3.40
2023-04-13T14:06:24.548Z,4.50
2023-04-13T14:08:53.113Z,3.20
2023-04-13T14:11:21.753Z,4.70
2023-04-13T14:13:49.733Z,6.30
2023-04-13T14:16:17.965Z,4.90
2023-04-13T14:18:48.006Z,3.20
2023-04-13T14:21:21.421Z,2.40
2023-04-13T14:23:50.438Z,2.80
2023-04-13T14:26:18.685Z,2.70
2023-04-13T14:28:46.770Z,4.40
2023-04-13T14:31:16.412Z,6.30
2023-04-13T14:33:46.826Z,3.10
2023-04-13T14:36:16.877Z,4.70
2023-04-13T14:38:45.007Z,3.90
2023-04-13T14:41:13.388Z,3.90
2023-04-13T14:43:41.433Z,4.60
2023-04-13T14:46:09.292Z,6.20
2023-04-13T14:48:37.614Z,2.90
2023-04-13T14:51:06.075Z,8.10
2023-04-13T14:53:35.571Z,8.60
2023-04-13T14:56:03.483Z,7.00
2023-04-13T14:58:31.498Z,10.70
2023-04-13T15:00:59.514Z,3.60
2023-04-13T15:03:28.773Z,3.50
2023-04-13T15:06:03.409Z,7.70
2023-04-13T15:08:33.979Z,3.40
2023-04-13T15:11:02.045Z,4.40
2023-04-13T15:13:29.910Z,7.30
2023-04-13T15:15:57.983Z,6.00
2023-04-13T15:18:25.963Z,2.60
2023-04-13T15:20:54.080Z,2.50
2023-04-13T15:23:22.546Z,3.80
2023-04-13T15:25:50.663Z,5.30
2023-04-13T15:28:18.750Z,6.80
2023-04-13T15:30:46.847Z,3.60
2023-04-13T15:33:14.786Z,4.00
2023-04-13T15:35:42.927Z,2.90
2023-04-13T15:38:11.217Z,3.20
2023-04-13T15:40:39.403Z,5.10
2023-04-13T15:43:08.607Z,3.70
2023-04-13T15:45:37.469Z,7.40
2023-04-13T15:48:07.122Z,5.20
2023-04-13T15:50:35.237Z,3.10
2023-04-13T15:53:03.384Z,2.10
2023-04-13T15:55:31.723Z,3.00
2023-04-13T15:57:59.829Z,6.00
2023-04-13T16:00:28.532Z,3.60
2023-04-13T16:02:57.076Z,3.20
2023-04-13T16:05:25.402Z,5.00
2023-04-13T16:07:54.917Z,2.70
2023-04-13T16:10:23.158Z,3.30
2023-04-13T16:13:00.923Z,4.40
2023-04-13T16:15:28.985Z,4.30
2023-04-13T16:17:57.203Z,4.20
2023-04-13T16:20:28.347Z,3.30
2023-04-13T16:23:02.269Z,2.80
2023-04-13T16:25:30.860Z,3.60
2023-04-13T16:27:58.766Z,3.70
2023-04-13T16:30:27.559Z,5.60
2023-04-13T16:32:55.755Z,4.30
2023-04-13T16:35:26.957Z,2.80
2023-04-13T16:37:58.030Z,6.00
2023-04-13T16:40:26.480Z,4.00
2023-04-13T16:42:55.252Z,6.30
2023-04-13T16:45:24.654Z,3.50
2023-04-13T16:47:55.722Z,6.50
2023-04-13T16:50:30.399Z,3.70
2023-04-13T16:53:00.288Z,4.80
2023-04-13T16:55:28.791Z,7.60
2023-04-13T16:57:57.482Z,5.80
2023-04-13T17:00:25.827Z,4.90
2023-04-13T17:02:54.452Z,4.50
2023-04-13T17:05:26.189Z,4.40
2023-04-13T17:07:54.442Z,14.90
2023-04-13T17:10:23.156Z,16.00
2023-04-13T17:12:51.222Z,24.20
2023-04-13T17:15:21.657Z,18.50
2023-04-13T17:17:49.761Z,11.40
2023-04-13T17:20:19.061Z,23.00
2023-04-13T17:22:47.476Z,9.60
2023-04-13T17:25:15.599Z,9.90
2023-04-13T17:27:43.940Z,9.80
2023-04-13T17:30:13.065Z,17.70
2023-04-13T17:32:41.541Z,12.50
2023-04-13T17:35:13.096Z,13.10
2023-04-13T17:37:41.649Z,45.50
2023-04-13T17:40:10.762Z,30.60
2023-04-13T17:42:38.759Z,38.50
2023-04-13T17:45:08.716Z,32.20
2023-04-13T17:47:37.313Z,22.50
2023-04-13T17:50:06.384Z,16.70
2023-04-13T17:52:35.432Z,24.60
2023-04-13T17:55:04.014Z,14.10
2023-04-13T17:57:32.456Z,9.30
2023-04-13T18:00:01.265Z,17.60
2023-04-13T18:02:31.594Z,14.90
2023-04-13T18:05:01.936Z,15.30
2023-04-13T18:07:29.976Z,13.90
2023-04-13T18:09:58.040Z,16.60
2023-04-13T18:12:26.297Z,28.60
2023-04-13T18:14:54.406Z,29.70
2023-04-13T18:17:22.474Z,28.80
2023-04-13T18:19:54.215Z,26.90
2023-04-13T18:22:22.654Z,20.20
2023-04-13T18:24:50.650Z,26.90
2023-04-13T18:27:19.600Z,14.40
2023-04-13T18:29:48.260Z,22.20
2023-04-13T18:32:17.220Z,23.60
2023-04-13T18:34:45.835Z,31.40
2023-04-13T18:37:21.268Z,32.30
2023-04-13T18:39:58.079Z,35.70
2023-04-13T18:42:26.473Z,32.30
2023-04-13T18:44:54.496Z,22.90
2023-04-13T18:47:25.912Z,22.30
2023-04-13T18:49:54.157Z,19.30
2023-04-13T18:52:25.853Z,39.70
2023-04-13T18:54:54.574Z,33.70
2023-04-13T18:57:23.442Z,26.90
2023-04-13T18:59:51.712Z,27.70
2023-04-13T19:04:39.052Z,39.60
2023-04-13T19:07:09.554Z,33.90
2023-04-13T19:09:38.782Z,30.90
2023-04-13T19:12:07.581Z,34.10
2023-04-13T19:14:36.436Z,34.60
2023-04-13T19:17:05.844Z,36.90
2023-04-13T19:19:34.367Z,30.40
2023-04-13T19:22:02.717Z,24.60
2023-04-13T19:24:31.108Z,27.90
2023-04-13T19:26:59.573Z,23.40
2023-04-13T19:29:30.276Z,30.80
2023-04-13T19:31:59.021Z,26.80
2023-04-13T19:34:27.525Z,39.00
2023-04-13T19:36:55.996Z,42.00
2023-04-13T19:39:24.498Z,24.50
2023-04-13T19:41:53.341Z,24.50
2023-04-13T19:44:21.809Z,26.10
2023-04-13T19:46:50.282Z,29.20
2023-04-13T19:49:18.775Z,30.80
2023-04-13T19:51:47.090Z,33.10
2023-04-13T19:54:15.379Z,31.00
2023-04-13T19:56:43.943Z,33.00
2023-04-13T19:59:13.177Z,33.70
2023-04-13T20:01:46.031Z,28.00
2023-04-13T20:04:14.498Z,28.30
2023-04-13T20:06:43.068Z,36.50
2023-04-13T20:09:14.039Z,26.40
2023-04-13T20:11:42.148Z,26.40
2023-04-13T20:14:11.592Z,31.50
2023-04-13T20:16:39.832Z,28.70
2023-04-13T20:19:09.960Z,28.40
2023-04-13T20:21:38.115Z,25.40
2023-04-13T20:24:06.447Z,32.80
2023-04-13T20:26:34.682Z,25.70
2023-04-13T20:29:05.233Z,19.60
2023-04-13T20:31:33.595Z,27.50
2023-04-13T20:34:03.647Z,28.50
2023-04-13T20:36:31.685Z,35.10
2023-04-13T20:39:00.364Z,25.80
2023-04-13T20:41:33.829Z,27.90
2023-04-13T20:44:02.958Z,40.80
2023-04-13T20:46:35.141Z,27.40
2023-04-13T20:49:05.360Z,41.10
2023-04-13T20:51:33.906Z,30.30
2023-04-13T20:54:02.400Z,24.40
2023-04-13T20:56:32.036Z,32.90
2023-04-13T20:59:01.070Z,27.80
2023-04-13T21:01:30.319Z,39.40
2023-04-13T21:03:58.625Z,27.90
2023-04-13T21:06:30.156Z,38.30
2023-04-13T21:08:59.172Z,39.80
2023-04-13T21:11:28.458Z,39.80
2023-04-13T21:13:56.565Z,36.00
2023-04-13T21:16:26.068Z,38.80
2023-04-13T21:18:54.702Z,34.20
2023-04-13T21:21:25.003Z,26.70
2023-04-13T21:23:53.502Z,33.10
2023-04-13T21:26:21.493Z,21.90
2023-04-13T21:28:49.685Z,30.50
2023-04-13T21:31:17.739Z,28.00
2023-04-13T21:33:46.003Z,24.10
2023-04-13T21:38:45.345Z,24.50
2023-04-13T21:41:16.141Z,24.10
2023-04-13T21:43:44.126Z,23.20
2023-04-13T21:46:13.214Z,28.30
2023-04-13T21:48:41.925Z,26.10
2023-04-13T21:51:11.259Z,25.00
2023-04-13T21:53:39.378Z,25.10
2023-04-13T21:56:07.559Z,23.40
2023-04-13T21:58:41.784Z,28.30
2023-04-13T22:01:12.845Z,22.60
2023-04-13T22:03:43.388Z,28.90
2023-04-13T22:06:11.678Z,27.80
2023-04-13T22:08:40.253Z,24.80
2023-04-13T22:11:08.223Z,30.90
2023-04-13T22:13:36.658Z,26.80
2023-04-13T22:16:04.782Z,26.80
2023-04-13T22:18:32.946Z,29.10
2023-04-13T22:21:00.954Z,33.00
2023-04-13T22:23:29.266Z,24.30
2023-04-13T22:26:03.745Z,23.70
2023-04-13T22:28:32.041Z,30.20
2023-04-13T22:31:09.552Z,32.40
2023-04-13T22:33:38.416Z,42.20
2023-04-13T22:36:16.702Z,32.80
2023-04-13T22:38:44.625Z,30.30
2023-04-13T22:41:12.844Z,26.50
2023-04-13T22:43:43.701Z,30.10
2023-04-13T22:46:12.171Z,27.10
2023-04-13T22:48:40.374Z,28.80
2023-04-13T22:51:08.371Z,27.70
2023-04-13T22:53:36.828Z,32.20
2023-04-13T22:56:05.675Z,30.70
2023-04-13T22:58:33.555Z,33.80
2023-04-13T23:01:01.465Z,30.50
2023-04-13T23:03:29.377Z,28.80
2023-04-13T23:05:57.673Z,28.20
2023-04-13T23:08:25.846Z,30.70
2023-04-13T23:10:53.705Z,26.70
2023-04-13T23:13:21.727Z,26.00
2023-04-13T23:15:49.595Z,30.20
2023-04-13T23:18:17.461Z,31.90
2023-04-13T23:20:45.516Z,28.00
2023-04-13T23:23:13.454Z,25.50
2023-04-13T23:25:41.331Z,28.90
2023-04-13T23:28:09.189Z,26.60
2023-04-13T23:30:37.184Z,29.90
2023-04-13T23:33:05.157Z,29.10
2023-04-13T23:35:33.136Z,28.80
2023-04-13T23:38:01.447Z,26.00
2023-04-13T23:40:29.370Z,29.00
2023-04-13T23:42:57.205Z,24.40
2023-04-13T23:45:25.195Z,22.90
2023-04-13T23:47:53.985Z,23.00
2023-04-13T23:50:22.370Z,25.10
2023-04-13T23:52:50.309Z,30.10
2023-04-13T23:55:18.205Z,26.30
2023-04-13T23:57:46.627Z,24.80
